Time;durP1;ratioP1;P1;durP2;ratioP2;P2;SDS_P1;SDS_P2;PMS_P1;PMS_P2;Temp;Humidity;BMP_temperature;BMP_pressure;BME280_temperature;BME280_humidity;BME280_pressure;Samples;Min_cycle;Max_cycle;Signal;HPM_P1;HPM_P2
2022/07/11 00:01:13;;;;;;;6.28;1.95;;;;;;;;;;4999719;28;20054;-74
2022/07/11 00:03:39;;;;;;;4.00;1.92;;;;;;;;;;5004415;28;20037;-74
2022/07/11 00:06:05;;;;;;;5.57;1.80;;;;;;;;;;5011013;28;20060;-74
2022/07/11 00:08:32;;;;;;;14.00;2.67;;;;;;;;;;5011455;28;20029;-74
2022/07/11 00:10:58;;;;;;;3.58;2.00;;;;;;;;;;5002674;28;20041;-73
2022/07/11 00:13:25;;;;;;;3.28;1.73;;;;;;;;;;5006767;28;20041;-75
2022/07/11 00:15:51;;;;;;;3.15;1.80;;;;;;;;;;5004450;28;20105;-79
2022/07/11 00:18:17;;;;;;;5.72;2.03;;;;;;;;;;5001980;28;20026;-73
2022/07/11 00:20:43;;;;;;;2.83;1.52;;;;;;;;;;4999158;28;20044;-73
2022/07/11 00:23:09;;;;;;;3.00;1.80;;;;;;;;;;5007760;28;20543;-74
2022/07/11 00:25:36;;;;;;;3.08;1.60;;;;;;;;;;5003864;28;20033;-74
2022/07/11 00:28:02;;;;;;;2.50;1.83;;;;;;;;;;4999635;28;20458;-73
2022/07/11 00:30:28;;;;;;;5.65;2.00;;;;;;;;;;5002224;28;20022;-74
2022/07/11 00:32:54;;;;;;;1.77;1.40;;;;;;;;;;4997322;28;20034;-73
2022/07/11 00:35:20;;;;;;;3.03;1.90;;;;;;;;;;5007290;28;20126;-73
2022/07/11 00:37:47;;;;;;;1.85;1.45;;;;;;;;;;5007369;28;20022;-75
2022/07/11 00:40:13;;;;;;;6.75;1.60;;;;;;;;;;5005057;28;20033;-73
2022/07/11 00:42:39;;;;;;;5.15;1.60;;;;;;;;;;5003589;28;20030;-74
2022/07/11 00:45:05;;;;;;;5.75;2.20;;;;;;;;;;4999953;28;20177;-73
2022/07/11 00:47:31;;;;;;;4.10;2.10;;;;;;;;;;5000499;28;20031;-76
2022/07/11 00:49:57;;;;;;;4.03;2.30;;;;;;;;;;5007898;28;20368;-74
2022/07/11 00:52:24;;;;;;;3.08;2.03;;;;;;;;;;5001394;28;20034;-73
2022/07/11 00:54:50;;;;;;;3.30;2.20;;;;;;;;;;5002387;28;20022;-74
2022/07/11 00:57:16;;;;;;;3.53;2.30;;;;;;;;;;5001520;28;20116;-73
2022/07/11 00:59:42;;;;;;;2.67;1.80;;;;;;;;;;5002432;28;20486;-73
2022/07/11 01:02:08;;;;;;;2.28;1.85;;;;;;;;;;5002789;28;20036;-73
2022/07/11 01:04:35;;;;;;;3.33;1.95;;;;;;;;;;5006050;28;20398;-80
2022/07/11 01:07:01;;;;;;;1.75;1.48;;;;;;;;;;5009719;28;20057;-73
2022/07/11 01:09:27;;;;;;;6.72;1.90;;;;;;;;;;5003049;28;20177;-73
2022/07/11 01:11:53;;;;;;;2.75;1.63;;;;;;;;;;5007433;28;20076;-73
2022/07/11 01:14:19;;;;;;;2.85;1.63;;;;;;;;;;5001611;28;20037;-74
2022/07/11 01:16:46;;;;;;;3.72;1.60;;;;;;;;;;5005559;28;20050;-77
2022/07/11 01:19:12;;;;;;;5.70;1.88;;;;;;;;;;5001466;28;20168;-78
2022/07/11 01:21:39;;;;;;;6.53;1.77;;;;;;;;;;5000874;28;20046;-76
2022/07/11 01:24:06;;;;;;;2.30;1.50;;;;;;;;;;4999790;28;20033;-77
2022/07/11 01:26:33;;;;;;;3.30;1.67;;;;;;;;;;4993311;28;20026;-74
2022/07/11 01:29:08;;;;;;;3.15;1.65;;;;;;;;;;5001312;28;20033;-79
2022/07/11 01:31:35;;;;;;;3.83;1.98;;;;;;;;;;5005232;28;20030;-75
2022/07/11 01:34:01;;;;;;;3.35;2.13;;;;;;;;;;5002892;28;20105;-75
2022/07/11 01:36:27;;;;;;;4.03;2.00;;;;;;;;;;5003172;28;20053;-79
2022/07/11 01:38:53;;;;;;;4.63;1.90;;;;;;;;;;4999697;28;20080;-75
2022/07/11 01:41:19;;;;;;;6.53;2.00;;;;;;;;;;5003617;28;20053;-75
2022/07/11 01:43:46;;;;;;;2.25;1.60;;;;;;;;;;4999988;28;20026;-75
2022/07/11 01:46:12;;;;;;;2.65;1.85;;;;;;;;;;4994126;28;20505;-73
2022/07/11 01:48:38;;;;;;;5.05;1.75;;;;;;;;;;4998516;28;20109;-74
2022/07/11 01:51:05;;;;;;;5.82;2.13;;;;;;;;;;5003756;28;20056;-74
2022/07/11 01:53:31;;;;;;;4.55;1.98;;;;;;;;;;5001518;28;20034;-77
2022/07/11 01:55:57;;;;;;;3.47;1.90;;;;;;;;;;4998710;28;20585;-77
2022/07/11 01:58:23;;;;;;;3.17;2.10;;;;;;;;;;5001071;28;20098;-76
2022/07/11 02:00:49;;;;;;;3.45;2.00;;;;;;;;;;5001135;28;20048;-74
2022/07/11 02:03:16;;;;;;;9.43;2.45;;;;;;;;;;4997383;28;20037;-74
2022/07/11 02:05:42;;;;;;;3.15;1.85;;;;;;;;;;5001244;28;20101;-78
2022/07/11 02:08:12;;;;;;;1.90;1.52;;;;;;;;;;4996019;28;20046;-76
2022/07/11 02:10:39;;;;;;;4.72;1.98;;;;;;;;;;5001559;28;20042;-74
2022/07/11 02:13:05;;;;;;;2.67;1.98;;;;;;;;;;5000023;28;20448;-75
2022/07/11 02:15:31;;;;;;;8.27;2.03;;;;;;;;;;4996787;28;20068;-74
2022/07/11 02:17:58;;;;;;;3.75;1.67;;;;;;;;;;4997095;28;20022;-78
2022/07/11 02:20:24;;;;;;;3.33;1.85;;;;;;;;;;4997754;28;20034;-75
2022/07/11 02:22:51;;;;;;;3.22;1.80;;;;;;;;;;5003062;28;20109;-77
2022/07/11 02:25:18;;;;;;;2.20;1.50;;;;;;;;;;5000596;28;20030;-73
2022/07/11 02:27:44;;;;;;;4.68;1.95;;;;;;;;;;5004679;28;20044;-76
2022/07/11 02:30:11;;;;;;;3.47;1.90;;;;;;;;;;5005237;28;20032;-73
2022/07/11 02:32:37;;;;;;;5.32;1.70;;;;;;;;;;5004902;28;20025;-74
2022/07/11 02:35:04;;;;;;;3.05;1.70;;;;;;;;;;5005205;28;20127;-76
2022/07/11 02:37:31;;;;;;;3.42;1.83;;;;;;;;;;5002343;28;20084;-73
2022/07/11 02:39:57;;;;;;;6.60;1.90;;;;;;;;;;5005078;28;20040;-73
2022/07/11 02:42:23;;;;;;;2.92;1.70;;;;;;;;;;5004562;28;20104;-78
2022/07/11 02:44:50;;;;;;;2.10;1.80;;;;;;;;;;5008039;28;20084;-77
2022/07/11 02:47:16;;;;;;;5.13;1.90;;;;;;;;;;5007160;28;20021;-78
2022/07/11 02:49:42;;;;;;;4.80;1.75;;;;;;;;;;5004553;28;20414;-76
2022/07/11 02:52:09;;;;;;;3.65;1.98;;;;;;;;;;5003341;28;20137;-79
2022/07/11 02:54:35;;;;;;;2.55;1.70;;;;;;;;;;5005022;28;20057;-74
2022/07/11 02:57:01;;;;;;;2.40;1.55;;;;;;;;;;5004521;28;20029;-73
2022/07/11 02:59:27;;;;;;;4.68;1.90;;;;;;;;;;5004648;28;20048;-73
2022/07/11 03:01:54;;;;;;;4.50;1.75;;;;;;;;;;5002631;28;20414;-73
2022/07/11 03:04:20;;;;;;;2.47;1.67;;;;;;;;;;5004647;28;20084;-74
2022/07/11 03:06:46;;;;;;;2.38;1.83;;;;;;;;;;5004534;28;20081;-74
2022/07/11 03:09:13;;;;;;;5.53;1.98;;;;;;;;;;5005878;28;20112;-74
2022/07/11 03:11:39;;;;;;;2.03;1.65;;;;;;;;;;5004932;28;20022;-76
2022/07/11 03:14:05;;;;;;;3.63;2.00;;;;;;;;;;5003617;28;20026;-76
2022/07/11 03:16:32;;;;;;;2.65;1.38;;;;;;;;;;5004044;28;20112;-74
2022/07/11 03:18:58;;;;;;;2.30;1.70;;;;;;;;;;4999649;28;20029;-73
2022/07/11 03:21:25;;;;;;;3.42;2.00;;;;;;;;;;5002384;28;20441;-72
2022/07/11 03:23:51;;;;;;;4.63;1.90;;;;;;;;;;5002014;28;20057;-73
2022/07/11 03:26:18;;;;;;;3.30;1.88;;;;;;;;;;5001229;28;20038;-73
2022/07/11 03:28:44;;;;;;;2.63;1.80;;;;;;;;;;5000608;28;20025;-73
2022/07/11 03:31:10;;;;;;;4.60;1.83;;;;;;;;;;5001760;28;20497;-78
2022/07/11 03:33:37;;;;;;;4.75;2.00;;;;;;;;;;5004854;28;20029;-73
2022/07/11 03:36:03;;;;;;;3.38;1.90;;;;;;;;;;4998885;28;20489;-73
2022/07/11 03:38:29;;;;;;;4.07;2.00;;;;;;;;;;5001869;28;20022;-75
2022/07/11 03:40:56;;;;;;;4.30;1.75;;;;;;;;;;5001784;28;20623;-73
2022/07/11 03:43:22;;;;;;;2.75;1.70;;;;;;;;;;5001206;28;20026;-73
2022/07/11 03:45:48;;;;;;;3.90;1.90;;;;;;;;;;4999679;28;20030;-73
2022/07/11 03:48:22;;;;;;;3.63;2.00;;;;;;;;;;5001237;28;20061;-76
2022/07/11 03:50:49;;;;;;;5.28;1.73;;;;;;;;;;5003314;28;20040;-73
2022/07/11 03:53:15;;;;;;;3.30;1.90;;;;;;;;;;5001214;28;20018;-73
2022/07/11 03:55:41;;;;;;;2.72;1.85;;;;;;;;;;5001973;28;20026;-73
2022/07/11 03:58:08;;;;;;;3.35;1.83;;;;;;;;;;5001355;28;20025;-74
2022/07/11 04:00:34;;;;;;;4.15;2.03;;;;;;;;;;4999815;28;20038;-73
2022/07/11 04:03:01;;;;;;;1.75;1.55;;;;;;;;;;5001454;28;20167;-74
2022/07/11 04:05:27;;;;;;;4.03;1.75;;;;;;;;;;5000416;28;20034;-73
2022/07/11 04:07:54;;;;;;;2.35;1.90;;;;;;;;;;5000971;28;20025;-73
2022/07/11 04:10:20;;;;;;;7.18;2.08;;;;;;;;;;4999146;28;20117;-73
2022/07/11 04:12:46;;;;;;;4.70;2.20;;;;;;;;;;5001476;28;20037;-73
2022/07/11 04:15:12;;;;;;;6.05;1.85;;;;;;;;;;5001180;28;20032;-73
2022/07/11 04:17:39;;;;;;;5.50;1.85;;;;;;;;;;5001433;28;20064;-73
2022/07/11 04:20:05;;;;;;;3.97;2.20;;;;;;;;;;4993363;28;20080;-73
2022/07/11 04:22:31;;;;;;;3.35;1.70;;;;;;;;;;4997734;28;20041;-74
2022/07/11 04:24:58;;;;;;;3.75;1.90;;;;;;;;;;4999199;28;20033;-75
2022/07/11 04:27:27;;;;;;;2.53;1.60;;;;;;;;;;4999462;28;20064;-74
2022/07/11 04:29:53;;;;;;;3.30;1.80;;;;;;;;;;4991743;28;20030;-74
2022/07/11 04:32:20;;;;;;;7.15;2.67;;;;;;;;;;4998842;28;20030;-76
2022/07/11 04:34:46;;;;;;;5.65;2.03;;;;;;;;;;4997560;28;20029;-75
2022/07/11 04:37:12;;;;;;;2.35;1.60;;;;;;;;;;4999223;28;20100;-73
2022/07/11 04:39:39;;;;;;;3.95;1.58;;;;;;;;;;4997241;28;20026;-74
2022/07/11 04:42:06;;;;;;;5.50;1.80;;;;;;;;;;4999191;28;20032;-74
2022/07/11 04:44:33;;;;;;;3.67;1.60;;;;;;;;;;4999132;28;20045;-74
2022/07/11 04:46:59;;;;;;;3.28;1.80;;;;;;;;;;5001363;28;20026;-75
2022/07/11 04:49:25;;;;;;;4.80;1.77;;;;;;;;;;5000021;28;20034;-75
2022/07/11 04:51:51;;;;;;;3.30;1.88;;;;;;;;;;5000933;28;20036;-74
2022/07/11 04:54:17;;;;;;;2.33;1.60;;;;;;;;;;5001057;28;20113;-73
2022/07/11 04:56:43;;;;;;;1.92;1.73;;;;;;;;;;4907356;28;20045;-73
2022/07/11 04:59:10;;;;;;;2.63;1.50;;;;;;;;;;5000722;28;20053;-73
2022/07/11 05:01:36;;;;;;;3.05;1.80;;;;;;;;;;5000910;28;20034;-76
2022/07/11 05:04:03;;;;;;;2.45;1.50;;;;;;;;;;4997849;28;20022;-75
2022/07/11 05:06:29;;;;;;;2.83;1.60;;;;;;;;;;4992337;28;20026;-73
2022/07/11 05:08:55;;;;;;;4.15;2.00;;;;;;;;;;4998935;28;20037;-75
2022/07/11 05:11:23;;;;;;;3.10;1.63;;;;;;;;;;4998912;28;20216;-73
2022/07/11 05:13:49;;;;;;;3.38;1.67;;;;;;;;;;4996987;28;20041;-74
2022/07/11 05:16:15;;;;;;;3.08;1.60;;;;;;;;;;4998284;28;20037;-75
2022/07/11 05:18:41;;;;;;;5.43;1.88;;;;;;;;;;4998759;28;20026;-75
2022/07/11 05:21:07;;;;;;;2.63;1.70;;;;;;;;;;4998818;28;20494;-74
2022/07/11 05:23:33;;;;;;;5.13;1.70;;;;;;;;;;4995483;28;20026;-74
2022/07/11 05:25:59;;;;;;;2.65;1.75;;;;;;;;;;4998216;28;20030;-77
2022/07/11 05:28:26;;;;;;;2.88;2.00;;;;;;;;;;5000378;28;20674;-74
2022/07/11 05:30:52;;;;;;;4.55;1.70;;;;;;;;;;5000987;28;20060;-73
2022/07/11 05:33:18;;;;;;;1.85;1.48;;;;;;;;;;5001287;28;20034;-76
2022/07/11 05:35:44;;;;;;;3.72;1.83;;;;;;;;;;5000900;28;20045;-74
2022/07/11 05:38:10;;;;;;;1.95;1.70;;;;;;;;;;5001286;28;20037;-74
2022/07/11 05:40:36;;;;;;;3.67;1.60;;;;;;;;;;5000617;28;20044;-74
2022/07/11 05:43:02;;;;;;;3.00;1.95;;;;;;;;;;4998903;28;20079;-74
2022/07/11 05:45:29;;;;;;;3.08;2.00;;;;;;;;;;5004105;28;20396;-74
2022/07/11 05:47:55;;;;;;;3.17;1.67;;;;;;;;;;5003094;28;20125;-73
2022/07/11 05:50:21;;;;;;;3.10;1.40;;;;;;;;;;5001676;28;20034;-73
2022/07/11 05:52:47;;;;;;;3.10;1.83;;;;;;;;;;5003925;28;20453;-73
2022/07/11 05:55:13;;;;;;;3.35;1.90;;;;;;;;;;5002000;28;20041;-74
2022/07/11 05:57:39;;;;;;;3.20;2.20;;;;;;;;;;5004095;28;20037;-73
2022/07/11 06:00:06;;;;;;;2.70;1.65;;;;;;;;;;5001651;28;20045;-74
2022/07/11 06:02:33;;;;;;;3.10;1.70;;;;;;;;;;5000639;28;20080;-74
2022/07/11 06:04:59;;;;;;;4.35;1.73;;;;;;;;;;4997749;28;20022;-74
2022/07/11 06:10:10;;;;;;;6.65;2.15;;;;;;;;;;5003801;28;20080;-73
2022/07/11 06:12:37;;;;;;;2.70;1.70;;;;;;;;;;5002257;28;20028;-77
2022/07/11 06:15:03;;;;;;;3.03;1.50;;;;;;;;;;5003755;28;20235;-74
2022/07/11 06:17:29;;;;;;;3.33;1.88;;;;;;;;;;5003585;28;20030;-74
2022/07/11 06:19:55;;;;;;;2.85;1.88;;;;;;;;;;5001918;28;20026;-73
2022/07/11 06:22:21;;;;;;;1.92;1.60;;;;;;;;;;5001429;28;20025;-73
2022/07/11 06:24:47;;;;;;;3.30;1.75;;;;;;;;;;5000614;28;20029;-74
2022/07/11 06:27:13;;;;;;;4.60;1.73;;;;;;;;;;4999984;28;20033;-74
2022/07/11 06:29:40;;;;;;;1.90;1.40;;;;;;;;;;5002528;28;20037;-74
2022/07/11 06:32:07;;;;;;;3.40;1.77;;;;;;;;;;5001835;28;20401;-73
2022/07/11 06:34:34;;;;;;;3.45;1.80;;;;;;;;;;5002492;28;20022;-74
2022/07/11 06:37:01;;;;;;;2.08;1.60;;;;;;;;;;5001903;28;20219;-73
2022/07/11 06:39:28;;;;;;;5.25;1.60;;;;;;;;;;4999469;28;20069;-73
2022/07/11 06:41:54;;;;;;;3.40;1.90;;;;;;;;;;4998134;28;20033;-73
2022/07/11 06:44:20;;;;;;;2.60;1.67;;;;;;;;;;4999369;28;20038;-73
2022/07/11 06:46:46;;;;;;;3.38;1.58;;;;;;;;;;5000066;28;20030;-74
2022/07/11 06:49:13;;;;;;;2.40;1.98;;;;;;;;;;5000999;28;20022;-73
2022/07/11 06:51:39;;;;;;;4.38;1.83;;;;;;;;;;5003046;28;20013;-73
2022/07/11 06:54:05;;;;;;;3.10;1.83;;;;;;;;;;5002801;28;20034;-73
2022/07/11 06:56:32;;;;;;;3.03;1.80;;;;;;;;;;5002778;28;20065;-73
2022/07/11 06:58:58;;;;;;;2.08;1.67;;;;;;;;;;5002516;28;20022;-74
2022/07/11 07:01:24;;;;;;;2.53;1.67;;;;;;;;;;5001412;28;20633;-74
2022/07/11 07:03:51;;;;;;;2.53;1.73;;;;;;;;;;5001496;28;20034;-74
2022/07/11 07:06:17;;;;;;;2.88;1.88;;;;;;;;;;5003581;28;20034;-76
2022/07/11 07:08:43;;;;;;;2.55;1.63;;;;;;;;;;5002734;28;20053;-74
2022/07/11 07:11:09;;;;;;;3.30;1.73;;;;;;;;;;5001708;28;20032;-74
2022/07/11 07:13:36;;;;;;;4.88;1.63;;;;;;;;;;5003006;28;20024;-74
2022/07/11 07:16:02;;;;;;;4.30;1.98;;;;;;;;;;5003694;28;20505;-74
2022/07/11 07:18:28;;;;;;;4.80;2.10;;;;;;;;;;5002793;28;20033;-74
2022/07/11 07:20:54;;;;;;;6.88;1.85;;;;;;;;;;5002405;28;20033;-79
2022/07/11 07:23:21;;;;;;;3.78;1.80;;;;;;;;;;5002762;28;20453;-73
2022/07/11 07:25:47;;;;;;;2.88;2.13;;;;;;;;;;5001331;28;20093;-75
2022/07/11 07:28:13;;;;;;;4.53;1.83;;;;;;;;;;5020188;28;20032;-74
2022/07/11 07:30:39;;;;;;;3.78;2.08;;;;;;;;;;5021874;28;20035;-74
2022/07/11 07:33:05;;;;;;;2.33;2.00;;;;;;;;;;5022081;28;20112;-73
2022/07/11 07:35:31;;;;;;;2.53;2.00;;;;;;;;;;5022270;28;20477;-73
2022/07/11 07:37:57;;;;;;;3.30;1.90;;;;;;;;;;5021149;28;20040;-73
2022/07/11 07:40:24;;;;;;;3.80;1.90;;;;;;;;;;5022323;28;20105;-73
2022/07/11 07:42:50;;;;;;;2.35;1.52;;;;;;;;;;5022496;28;20383;-73
2022/07/11 07:45:16;;;;;;;2.95;1.85;;;;;;;;;;5020974;28;20596;-73
2022/07/11 07:47:42;;;;;;;2.85;1.60;;;;;;;;;;5021855;28;20026;-73
2022/07/11 07:50:08;;;;;;;2.67;1.90;;;;;;;;;;5017271;28;20024;-74
2022/07/11 07:52:34;;;;;;;1.98;1.70;;;;;;;;;;5002241;28;20633;-73
2022/07/11 07:55:01;;;;;;;2.00;1.80;;;;;;;;;;5000703;28;20097;-73
2022/07/11 07:57:27;;;;;;;4.05;1.88;;;;;;;;;;5002187;28;20049;-74
2022/07/11 08:01:34;;;;;;;2.22;1.63;;;;;;;;;;5001152;28;20045;-73
2022/07/11 08:02:39;;;;;;;1.92;1.73;;;;;;;;;;5002504;28;20501;-74
2022/07/11 08:05:05;;;;;;;2.80;2.03;;;;;;;;;;5002036;28;20048;-74
2022/07/11 08:07:31;;;;;;;2.92;1.70;;;;;;;;;;5000836;28;20060;-75
2022/07/11 08:09:57;;;;;;;4.18;2.03;;;;;;;;;;5002191;28;20076;-73
2022/07/11 08:12:24;;;;;;;2.50;1.65;;;;;;;;;;4989369;28;20034;-74
2022/07/11 08:14:50;;;;;;;2.17;1.90;;;;;;;;;;4984444;28;20041;-74
2022/07/11 08:17:16;;;;;;;4.32;1.98;;;;;;;;;;4998357;28;20616;-73
2022/07/11 08:19:42;;;;;;;3.42;1.90;;;;;;;;;;5000651;28;20022;-73
2022/07/11 08:22:08;;;;;;;5.70;1.90;;;;;;;;;;5000137;28;20065;-73
2022/07/11 08:24:34;;;;;;;4.57;1.88;;;;;;;;;;4990666;28;20030;-74
2022/07/11 08:27:00;;;;;;;3.50;1.90;;;;;;;;;;4995860;28;20026;-73
2022/07/11 08:29:26;;;;;;;3.50;1.90;;;;;;;;;;4983227;28;20035;-75
2022/07/11 08:31:53;;;;;;;2.95;1.95;;;;;;;;;;4997005;28;20031;-73
2022/07/11 08:34:19;;;;;;;5.53;1.70;;;;;;;;;;4999885;28;20022;-73
2022/07/11 08:36:45;;;;;;;2.35;1.60;;;;;;;;;;4985828;28;20038;-74
2022/07/11 08:39:11;;;;;;;3.50;1.83;;;;;;;;;;4996354;28;20030;-73
2022/07/11 08:41:43;;;;;;;5.10;1.90;;;;;;;;;;4997131;28;20034;-74
2022/07/11 08:44:09;;;;;;;4.80;2.17;;;;;;;;;;5000073;28;20022;-73
2022/07/11 08:46:36;;;;;;;4.75;1.58;;;;;;;;;;4998301;28;20018;-73
2022/07/11 08:49:03;;;;;;;2.95;1.60;;;;;;;;;;4999716;28;20022;-74
2022/07/11 08:51:29;;;;;;;2.80;2.08;;;;;;;;;;5000141;28;20018;-74
2022/07/11 08:53:56;;;;;;;3.28;1.90;;;;;;;;;;4998776;28;20557;-74
2022/07/11 08:56:22;;;;;;;2.58;1.80;;;;;;;;;;4999519;28;20030;-74
2022/07/11 08:58:49;;;;;;;3.78;1.83;;;;;;;;;;4986149;28;20083;-74
2022/07/11 09:01:18;;;;;;;1.90;1.80;;;;;;;;;;5000106;28;20141;-74
2022/07/11 09:03:44;;;;;;;2.80;1.88;;;;;;;;;;5000268;28;20037;-74
2022/07/11 09:06:11;;;;;;;3.42;2.33;;;;;;;;;;4999961;28;20057;-73
2022/07/11 09:08:38;;;;;;;2.83;1.70;;;;;;;;;;5002924;28;20429;-74
2022/07/11 09:11:04;;;;;;;3.08;2.00;;;;;;;;;;5005864;28;20034;-73
2022/07/11 09:13:31;;;;;;;2.90;2.10;;;;;;;;;;5004818;28;20049;-74
2022/07/11 09:16:04;;;;;;;2.92;1.80;;;;;;;;;;5005187;28;20076;-74
2022/07/11 09:18:34;;;;;;;2.25;1.80;;;;;;;;;;5005056;28;20030;-73
2022/07/11 09:26:40;;;;;;;6.97;2.60;;;;;;;;;;4999062;28;20654;-76
2022/07/11 09:29:09;;;;;;;6.38;2.25;;;;;;;;;;5001292;28;20033;-74
2022/07/11 09:31:36;;;;;;;3.28;2.22;;;;;;;;;;5000546;28;20541;-77
2022/07/11 09:34:09;;;;;;;2.40;2.13;;;;;;;;;;5009430;28;20026;-75
2022/07/11 09:36:54;;;;;;;2.80;1.80;;;;;;;;;;4871255;28;20570;-75
2022/07/11 09:39:22;;;;;;;2.90;1.92;;;;;;;;;;5005293;28;20085;-75
2022/07/11 09:41:49;;;;;;;4.20;2.08;;;;;;;;;;4964769;28;20057;-75
2022/07/11 09:44:33;;;;;;;2.15;1.83;;;;;;;;;;4991380;28;20022;-76
2022/07/11 09:46:59;;;;;;;3.05;2.05;;;;;;;;;;4982274;28;20041;-75
2022/07/11 09:52:29;;;;;;;3.10;1.65;;;;;;;;;;4946706;28;20519;-75
2022/07/11 09:54:56;;;;;;;5.05;2.08;;;;;;;;;;4965498;28;20030;-75
2022/07/11 09:57:32;;;;;;;4.93;2.10;;;;;;;;;;4984923;28;20030;-74
2022/07/11 11:51:29;;;;;;;3.33;2.10;;;;;;;;;;4940303;23;20083;-73
2022/07/11 11:53:56;;;;;;;2.33;1.80;;;;;;;;;;5053042;28;20129;-73
2022/07/11 11:56:23;;;;;;;2.38;1.88;;;;;;;;;;5051224;28;20618;-73
2022/07/11 11:58:50;;;;;;;4.57;2.00;;;;;;;;;;5046961;28;20036;-73
2022/07/11 12:01:20;;;;;;;2.47;1.92;;;;;;;;;;5048946;28;20033;-76
2022/07/11 12:03:57;;;;;;;3.10;1.90;;;;;;;;;;5045268;28;20064;-74
2022/07/11 12:06:24;;;;;;;2.78;1.90;;;;;;;;;;5047436;28;20040;-73
2022/07/11 12:08:51;;;;;;;2.78;1.65;;;;;;;;;;5047690;28;20112;-74
2022/07/11 12:11:17;;;;;;;2.55;1.80;;;;;;;;;;5046361;28;20129;-74
2022/07/11 12:13:44;;;;;;;2.10;1.70;;;;;;;;;;5047743;28;20107;-73
2022/07/11 12:19:00;;;;;;;3.20;1.83;;;;;;;;;;5053142;28;20134;-72
2022/07/11 12:21:26;;;;;;;3.00;1.83;;;;;;;;;;5046277;28;20025;-73
2022/07/11 12:23:52;;;;;;;3.30;1.80;;;;;;;;;;5045176;28;20036;-75
2022/07/11 12:26:18;;;;;;;4.75;1.95;;;;;;;;;;5047102;28;20070;-74
2022/07/11 12:29:19;;;;;;;3.05;2.10;;;;;;;;;;5050669;28;20031;-74
2022/07/11 12:31:48;;;;;;;2.50;1.77;;;;;;;;;;5034914;28;20028;-73
2022/07/11 12:34:15;;;;;;;3.08;2.10;;;;;;;;;;5049704;28;20035;-74
2022/07/11 12:36:42;;;;;;;2.33;1.65;;;;;;;;;;5045745;28;20036;-73
2022/07/11 12:39:08;;;;;;;2.88;1.80;;;;;;;;;;5041760;28;20029;-74
2022/07/11 12:41:35;;;;;;;2.60;1.60;;;;;;;;;;5046993;28;20028;-73
2022/07/11 12:46:49;;;;;;;7.53;2.15;;;;;;;;;;5051425;28;20809;-73
2022/07/11 12:49:16;;;;;;;3.08;2.05;;;;;;;;;;5050208;28;20027;-72
2022/07/11 12:51:44;;;;;;;2.50;1.73;;;;;;;;;;5051276;28;20041;-73
2022/07/11 12:54:11;;;;;;;3.42;1.95;;;;;;;;;;5046495;28;20024;-73
2022/07/11 12:56:38;;;;;;;5.18;2.00;;;;;;;;;;5050494;28;20518;-73
2022/07/11 12:59:05;;;;;;;2.65;1.95;;;;;;;;;;5044877;28;20039;-72
2022/07/11 13:01:32;;;;;;;2.92;1.80;;;;;;;;;;5048432;28;20512;-72
2022/07/11 13:03:58;;;;;;;3.30;1.80;;;;;;;;;;5052126;28;20824;-72
2022/07/11 13:09:10;;;;;;;2.90;1.83;;;;;;;;;;5048428;28;20036;-74
2022/07/11 13:11:36;;;;;;;3.25;1.88;;;;;;;;;;5046768;28;20047;-74
2022/07/11 13:14:02;;;;;;;6.05;1.90;;;;;;;;;;5046984;28;20085;-73
2022/07/11 13:16:29;;;;;;;2.97;2.20;;;;;;;;;;5048388;28;20049;-72
2022/07/11 13:18:55;;;;;;;2.83;1.60;;;;;;;;;;5055154;28;20029;-73
2022/07/11 13:21:21;;;;;;;2.92;2.00;;;;;;;;;;5052828;28;20040;-72
2022/07/11 13:23:48;;;;;;;2.15;1.70;;;;;;;;;;5051003;28;20025;-73
2022/07/11 13:26:14;;;;;;;2.50;1.90;;;;;;;;;;5054495;28;20021;-73
2022/07/11 13:28:40;;;;;;;4.93;1.90;;;;;;;;;;5041836;28;20029;-73
2022/07/11 13:31:08;;;;;;;4.25;2.30;;;;;;;;;;5053223;28;20789;-72
2022/07/11 13:33:35;;;;;;;1.95;1.60;;;;;;;;;;5050322;28;20028;-74
2022/07/11 13:36:01;;;;;;;2.03;1.80;;;;;;;;;;5046163;28;20045;-73
2022/07/11 13:38:27;;;;;;;3.53;1.80;;;;;;;;;;5049154;28;20246;-73
2022/07/11 13:40:53;;;;;;;3.83;1.90;;;;;;;;;;5052425;28;21043;-73
2022/07/11 13:43:19;;;;;;;2.15;1.85;;;;;;;;;;5050215;28;20020;-73
2022/07/11 13:45:47;;;;;;;2.15;1.85;;;;;;;;;;5043996;28;20128;-73
2022/07/11 13:48:13;;;;;;;3.67;2.03;;;;;;;;;;5045031;28;20481;-73
2022/07/11 13:50:40;;;;;;;4.68;1.90;;;;;;;;;;5056996;28;20111;-73
2022/07/11 13:53:06;;;;;;;3.70;2.10;;;;;;;;;;5046343;28;20068;-73
2022/07/11 13:55:32;;;;;;;2.85;1.70;;;;;;;;;;5039487;28;20056;-73
2022/07/11 13:58:01;;;;;;;4.43;1.77;;;;;;;;;;5047089;28;20040;-73
2022/07/11 14:00:32;;;;;;;2.67;1.83;;;;;;;;;;5050180;28;20033;-72
2022/07/11 14:02:58;;;;;;;2.92;1.90;;;;;;;;;;5051338;28;20387;-71
2022/07/11 14:05:24;;;;;;;2.53;1.92;;;;;;;;;;5048732;28;20031;-72
2022/07/11 14:07:52;;;;;;;3.60;2.17;;;;;;;;;;5053123;28;20380;-73
2022/07/11 14:10:18;;;;;;;3.75;1.98;;;;;;;;;;5052064;28;20196;-72
2022/07/11 14:12:44;;;;;;;3.05;1.85;;;;;;;;;;5054136;28;20056;-72
2022/07/11 14:15:10;;;;;;;2.15;1.88;;;;;;;;;;5054808;28;20032;-72
2022/07/11 14:17:37;;;;;;;2.78;1.92;;;;;;;;;;5056149;28;20041;-72
2022/07/11 14:20:03;;;;;;;2.33;1.60;;;;;;;;;;5050198;28;20039;-72
2022/07/11 14:22:30;;;;;;;2.63;1.60;;;;;;;;;;5045488;28;20036;-72
2022/07/11 14:24:56;;;;;;;3.60;1.88;;;;;;;;;;5047708;28;20029;-72
2022/07/11 14:27:23;;;;;;;3.58;2.08;;;;;;;;;;5047956;28;20029;-71
2022/07/11 14:29:49;;;;;;;4.72;2.05;;;;;;;;;;5046507;28;20450;-72
2022/07/11 14:32:15;;;;;;;6.30;2.30;;;;;;;;;;5050758;28;20136;-72
2022/07/11 14:34:43;;;;;;;4.32;2.40;;;;;;;;;;5053318;28;20409;-72
2022/07/11 14:37:09;;;;;;;4.18;1.63;;;;;;;;;;5049869;28;20032;-72
2022/07/11 14:39:35;;;;;;;1.90;1.70;;;;;;;;;;5056306;28;20093;-73
2022/07/11 14:42:01;;;;;;;2.60;1.70;;;;;;;;;;5050298;28;20029;-72
2022/07/11 14:44:28;;;;;;;2.78;1.83;;;;;;;;;;5046108;28;20029;-72
2022/07/11 14:46:54;;;;;;;3.08;2.03;;;;;;;;;;5046090;28;20144;-73
2022/07/11 14:49:20;;;;;;;3.63;2.05;;;;;;;;;;5048898;28;20092;-73
2022/07/11 14:51:47;;;;;;;4.32;2.03;;;;;;;;;;5049578;28;20448;-72
2022/07/11 14:54:13;;;;;;;2.42;2.10;;;;;;;;;;5049739;28;20033;-72
2022/07/11 14:56:39;;;;;;;2.70;1.70;;;;;;;;;;5043792;28;20484;-72
2022/07/11 14:59:06;;;;;;;4.88;2.20;;;;;;;;;;5050112;28;20509;-72
2022/07/11 15:01:33;;;;;;;3.85;1.90;;;;;;;;;;5050345;28;20082;-72
2022/07/11 15:04:02;;;;;;;5.68;2.30;;;;;;;;;;5042489;28;20070;-72
2022/07/11 15:12:31;;;;;;;4.40;1.88;;;;;;;;;;5045156;28;20105;-72
2022/07/11 15:14:52;;;;;;;2.42;1.90;;;;;;;;;;5042808;28;20072;-72
2022/07/11 15:17:18;;;;;;;4.70;1.90;;;;;;;;;;5051774;28;20037;-72
2022/07/11 15:19:44;;;;;;;4.95;2.15;;;;;;;;;;5049789;28;20025;-72
2022/07/11 15:22:10;;;;;;;3.72;2.53;;;;;;;;;;5050717;28;20364;-72
2022/07/11 15:24:36;;;;;;;3.05;2.20;;;;;;;;;;5045499;28;20543;-74
2022/07/11 15:27:03;;;;;;;2.75;1.95;;;;;;;;;;5041728;28;20394;-72
2022/07/11 15:29:29;;;;;;;3.30;2.05;;;;;;;;;;5039504;28;20032;-72
2022/07/11 15:31:56;;;;;;;3.20;1.80;;;;;;;;;;5041101;28;20086;-72
2022/07/11 15:34:22;;;;;;;3.53;2.30;;;;;;;;;;5037930;28;20427;-72
2022/07/11 15:36:48;;;;;;;3.65;2.47;;;;;;;;;;5049545;28;20180;-72
2022/07/11 15:39:15;;;;;;;3.95;2.00;;;;;;;;;;5044703;28;20070;-73
2022/07/11 15:41:42;;;;;;;3.10;2.00;;;;;;;;;;5045822;28;20029;-73
2022/07/11 15:44:08;;;;;;;2.70;2.50;;;;;;;;;;5037515;28;20020;-71
2022/07/11 15:46:35;;;;;;;3.25;2.25;;;;;;;;;;5040555;28;20090;-72
2022/07/11 15:49:01;;;;;;;3.58;2.00;;;;;;;;;;5043491;28;20053;-72
2022/07/11 15:51:28;;;;;;;3.17;2.00;;;;;;;;;;5038943;28;20036;-72
2022/07/11 15:53:55;;;;;;;3.08;2.13;;;;;;;;;;5043221;28;20488;-72
2022/07/11 15:56:21;;;;;;;2.80;2.15;;;;;;;;;;5044790;28;20029;-72
2022/07/11 15:58:48;;;;;;;3.78;2.03;;;;;;;;;;5039811;28;20032;-72
2022/07/11 16:01:14;;;;;;;2.78;2.20;;;;;;;;;;5047552;28;20029;-72
2022/07/11 16:03:40;;;;;;;3.40;2.17;;;;;;;;;;5042878;28;20028;-73
2022/07/11 16:06:06;;;;;;;2.42;2.20;;;;;;;;;;5045584;28;20050;-72
2022/07/11 16:08:33;;;;;;;4.20;2.30;;;;;;;;;;5039505;28;20094;-72
2022/07/11 16:10:59;;;;;;;7.30;2.80;;;;;;;;;;5038202;28;20028;-73
2022/07/11 16:13:25;;;;;;;5.10;2.30;;;;;;;;;;5039548;28;20097;-72
2022/07/11 16:15:51;;;;;;;5.68;2.30;;;;;;;;;;5046389;28;20424;-71
2022/07/11 16:18:18;;;;;;;3.72;2.30;;;;;;;;;;5037499;28;20422;-71
2022/07/11 16:20:44;;;;;;;3.83;2.20;;;;;;;;;;5042932;28;20025;-71
2022/07/11 16:23:10;;;;;;;3.58;2.33;;;;;;;;;;5041085;28;20164;-72
2022/07/11 16:25:37;;;;;;;4.80;2.20;;;;;;;;;;5042962;28;20516;-71
2022/07/11 16:28:03;;;;;;;5.85;2.45;;;;;;;;;;5045908;28;20029;-71
2022/07/11 16:30:32;;;;;;;4.18;2.53;;;;;;;;;;5053293;28;20381;-72
2022/07/11 16:33:01;;;;;;;5.05;2.30;;;;;;;;;;5042476;28;20068;-72
2022/07/11 16:35:28;;;;;;;2.50;1.88;;;;;;;;;;5049386;28;20032;-72
2022/07/11 16:37:54;;;;;;;4.53;2.08;;;;;;;;;;5053267;28;20047;-72
2022/07/11 16:43:21;;;;;;;2.67;2.00;;;;;;;;;;5038644;28;20055;-72
2022/07/11 16:45:53;;;;;;;3.80;2.50;;;;;;;;;;5042837;28;20197;-72
2022/07/11 16:48:19;;;;;;;4.20;2.28;;;;;;;;;;5045918;28;20116;-72
2022/07/11 16:50:45;;;;;;;7.93;2.60;;;;;;;;;;5042379;28;20025;-71
2022/07/11 16:53:12;;;;;;;3.95;2.53;;;;;;;;;;5046219;28;20073;-73
2022/07/11 16:55:39;;;;;;;4.65;2.22;;;;;;;;;;5046020;28;20111;-71
2022/07/11 16:58:06;;;;;;;7.82;2.10;;;;;;;;;;5038705;28;20025;-71
2022/07/11 17:00:32;;;;;;;2.97;2.20;;;;;;;;;;5041704;28;20029;-71